Terminal Aerodrome Forecast
Issued by NWS

Current Version | Previous Version | Text Only | Print | Product List | Glossary On
Versions: 1 2 3 4 5 6 7 8 9 10 11 12 13 14 15 16
000
FTUS43 KGRR 021733
TAFMKG
TAF
KMKG 021733Z 0218/0318 20017G25KT P6SM FEW050 OVC160
     FM030000 30030G45KT 1/2SM +TSRA OVC020CB
     FM030100 27010KT 5SM -RA BKN035
     FM030400 30010KT 6SM BR VCSH BKN050=

USA.gov is the U.S. government's official web portal to all federal, state and local government web resources and services.